Thursday, November 27, 2014
19:38 UTC
  |  Log In   |  Register Free
Airport Search:

Lewis University Airport
(KLOT)

Lewis University Airport Diagram
No Airport Diagram Available

FAA data valid effective November 13, 2014 - January 08, 2015 (unless otherwise noted).

 
 
 
 
 
 
 
 
 
 
 
 
 
 

Current Aviation Weather for Lewis University Airport (KLOT)

The most recent METAR observation for KLOT was updated at: 1918
METAR Summary (Translated METAR)
KLOT
271855Z AUTO 32011G15KT 10SM OVC026 M04/M08 A3035 RMK AO2 T10361085
KJOT
271855Z AUTO 29005KT 10SM -SN OVC021 M04/M08 A3036 RMK AO2 T10381080
(6.4 nm SW from KLOT)
KC09
271855Z AUTO 32008KT 10SM OVC030 M03/M07 A3035 RMK AO2 T10261069
(18.2 nm SW from KLOT)
TAF
No TAF information found within 50 nm of KLOT
  Airport Weather Conditions for KLOT

 Current Weather at LOT
26° F
Overcast
Northwest winds at 12.7 mph
LOT NOAA Radar

Pressure: 30.34 in
Humidity: 69%
Wind: Northwest at 12.7 MPH (11 KT)
Dew Point: 17.1°F
Visibility: 10.00 mi


Airport Weather Forecast for KLOT

Translated METAR and TAF for KLOT
Translated METAR for KLOT (1933 UTC 27 November 2014)
found at http://aviationweather.gov/adds/metars/
 
METAR text: KLOT 271915Z AUTO 34010KT 10SM OVC024 M04/M08 A3035 RMK AO2 T10381081
Conditions at: KLOT (ROMEOVILLE/CHI , IL, US) observed 1915 UTC 27 November 2014
Temperature: -3.8°C (25°F)
Dewpoint: -8.1°C (17°F) [RH = 72%]
Pressure (altimeter): 30.35 inches Hg (1027.9 mb)
Winds: from the NNW (340 degrees) at 12 MPH (10 knots; 5.2 m/s)
Visibility: 10 or more miles (16+ km)
Ceiling: 2400 feet AGL
Clouds: overcast cloud deck at 2400 feet AGL
Weather: automated observation with no human augmentation;
there may or may not be significant weather present at this time
Translated TAF for KLOT

There is no translated TAF available for this airport

Find All Airport Services Find A Hotel Find A Rental Car Find A Golf Course Find A Restaurant $100 Hamburger



FBO's on the Field
FBO Company Facility Photos Services Transportation Aviation Fuel Prices: Prices include tax
Catering Weather Repair Courtesy Rental Type 100LL JetA JetA+ MOGAS 8087
 
Lewis University Airport

This FBO has not yet been rated
FS:Phillips 66
Last Updated: Nov-21
Login to update fuel prices
SS:
Contact Lewis University AirportMore FBO Information
 
Add another FBO Facility Photos Catering Weather Repair Courtesy Rental Type 100LL JetA JetA+ MOGAS 8087
Services Transportation Aviation Fuel Prices: Prices include tax


model-print
model-print
model-print
model-print